AirNav   Pilot Hours Calculator
 
 441 users online  

W49 Rosario Seaplane Base
Rosario, Washington, USA

GOING TO ROSARIO?


FAA INFORMATION EFFECTIVE 22 APRIL 2021

Location

FAA Identifier: W49
Lat/Long: 48-38-44.3730N 122-52-04.6580W
48-38.739550N 122-52.077633W
48.6456592,-122.8679606
(estimated)
Elevation: 0 ft. / 0 m (estimated)
Variation: 21E (1985)
Time zone: UTC -7 (UTC -8 during Standard Time)
Zip code: 98279

Seaplane Base Operations

Seaplane Base use: Open to the public
Activation date: 01/1948
Control tower: no
ARTCC: SEATTLE CENTER
FSS: SEATTLE FLIGHT SERVICE STATION
NOTAMs facility: SEA (NOTAM-D service available)
Attendance: DAYLIGHT HOURS
Wind indicator: no
Segmented circle: no

Seaplane Base Communications

CTAF: 128.25
WX AWOS-3 at ORS (4 nm NW): 135.425 (360-376-6045)
WX ASOS at FHR (10 nm SW): 135.675 (360-378-8491)
WX ASOS at BLI (16 nm NE): PHONE 360-671-8688
WX ASOS at NUW (20 nm SE): PHONE 360-257-8813

Nearby radio navigation aids

VOR radial/distance  VOR name  Freq  Var
HUHr192/21.3WHATCOM VORTAC113.0020E
CVVr328/24.7PENN COVE VOR/DME117.2019E
YYJr084/24.9VICTORIA VOR/DME113.7017E
YVRr140/28.2VANCOUVER VOR/DME115.9017E

 
NDB name  Hdg/Dist  Freq  Var  ID
FRIDAY HARBOR021/10.128417EFHR ..-. .... .-.
SKAGIT/BAY VIEW285/20.824016EBVS -... ...- ...
EDIZ HOOK018/37.133817ENOW -. --- .--

Seaplane Base Services

Airframe service: NONE
Powerplant service: NONE
Bottled oxygen: NONE
Bulk oxygen: NONE

Runway Information

Runway 16W/34W

Dimensions: 10000 x 1000 ft. / 3048 x 305 m
Surface: water
RUNWAY 16W  RUNWAY 34W
Traffic pattern: leftleft
Obstructions: 700 ft. hill, 1000 ft. from runway, 1:1 slope to clearnone

Runway 7W/25W

Dimensions: 2500 x 1000 ft. / 762 x 305 m
Surface: water
RUNWAY 7W  RUNWAY 25W
Traffic pattern: leftleft
Obstructions: 300 ft. hill, 3000 ft. from runway, 10:1 slope to clear1100 ft. hill, 4000 ft. from runway, 3:1 slope to clear

Seaplane Base Ownership and Management from official FAA records

Ownership: Privately-owned
Owner: ROSARIO RESORT
ROSARIO RESORT, 1400 ROSARIO ROAD
EASTSOUND, WA 98245
Phone 360-376-2222
Manager: CHRISTOPHER PEACOCK
ROSARIO RESORT, 1400 ROSARIO ROAD
EASTSOUND, WA 98245
Phone 360-376-2222
SELECT #4 FOR MARINA OFFICES

Seaplane Base Operational Statistics

Aircraft operations: avg 48/week *
84% air taxi
16% transient general aviation
* for 12-month period ending 31 December 2017

Additional Remarks

TRANSIENT DOCK AVBL.
CTC HARBORMASTER FOR OVNGT SEAPLANE MOORAGE. PHONE NR 360-376-2222. SELECT OPTION 4 FOR MARINA OFC.
FOR CD CTC WHIDBEY APCH AT 360-257-3310.

Instrument Procedures

There are no published instrument procedures at W49.

Some nearby airports with instrument procedures:

KORS - Orcas Island Airport (4 nm NW)
KFHR - Friday Harbor Airport (10 nm SW)
KBLI - Bellingham International Airport (16 nm NE)
KNUW - Whidbey Island Naval Air Station (Ault Field) (20 nm SE)
KBVS - Skagit Regional Airport (21 nm SE)
 
Loc | Ops | Rwys | IFR | FBO | Links
Com | Nav | Svcs | Stats | Notes
Area around W49 (Rosario Seaplane Base)
 
Road maps at: MapQuest Bing Google
 
Aerial photo
WARNING: Photo may not be current or correct
Aerial photo of W49 (Rosario Seaplane Base)
Do you have a better or more recent aerial photo of Rosario Seaplane Base that you would like to share? If so, please send us your photo.

 
Sectional chart

 
Airport distance calculator
Flying to Rosario Seaplane Base? Find the distance to fly.

From to W49

Sunrise and sunset
Times for 15-May-2021
 Local
(UTC-7)
 Zulu
(UTC)
Morning civil twilight04:5311:53
Sunrise05:3112:31
Sunset20:4403:44
Evening civil twilight21:2204:22

Current date and time
Zulu (UTC)  15-May-2021 08:53:42
Local (UTC-7)  15-May-2021 01:53:42
 
METAR
KORS 
3nm N 
150835Z AUTO 00000KT 10SM CLR 10/10 A3010 RMK AO2
CWEZ 
10nm NW 
150800Z AUTO 02003KT 12/08 RMK AO1 SLP189 T01220082 53009
KFHR 
10nm SW 
150753Z AUTO 00000KT 10SM CLR 07/06 A3011 RMK AO2 SLP196 T00670061 401830056 TSNO
CWZO 
16nm W 
150800Z AUTO 18006KT RMK AO1
KBLI 
16nm NE 
150753Z AUTO 21007KT 10SM CLR 12/06 A3010 RMK AO2 SLP197 T01220056 402060106
KNUW 
20nm SE 
150756Z 22004KT 10SM CLR 09/06 A3015 RMK AO2 SLP208 T00890061 401330089
TAF
KBLI 
16nm NE 
150537Z 1506/1606 19003KT P6SM SCT200 FM152000 22007KT P6SM SKC
KNUW 
20nm SE 
1507/1607 VRB06KT 9999 BCFG SCT030 SCT250 QNH3009INS TEMPO 1509/1515 0800 FG OVC003 BECMG 1517/1519 29008KT 9999 FEW005 SCT035 SCT250 QNH3000INS LAST NO AMDS AFT 1507 NEXT 1515 T06/1512Z T16/1523Z FS30148
NOTAMs
Click for the latest NOTAMs
NOTAMs are issued by the DoD/FAA and will open in a separate window not controlled by AirNav.

 

 
 

Would you like to see your business listed on this page?

 If your business provides an interesting product or service to pilots, flight crews, aircraft, or users of the Rosario Seaplane Base, you should consider listing it here.  To start the listing process, click on the button below
 
Add a business
 

Other Pages about Rosario Seaplane Base

Update a link
 
Copyright © AirNav, LLC. All rights reserved. Privacy Policy  Contact